Time;durP1;ratioP1;P1;durP2;ratioP2;P2;SDS_P1;SDS_P2;PMS_P1;PMS_P2;Temp;Humidity;BMP_temperature;BMP_pressure;BME280_temperature;BME280_humidity;BME280_pressure;Samples;Min_cycle;Max_cycle;Signal;HPM_P1;HPM_P2
2023/11/24 00:00:28;;;;;;;17.50;9.30;;;;;;;10.63;54.97;97606.41;108168;1254;72866;-66
2023/11/24 00:02:55;;;;;;;20.30;11.10;;;;;;;10.55;55.25;97604.98;108134;1254;70246;-67
2023/11/24 00:05:22;;;;;;;18.10;10.70;;;;;;;10.66;54.98;97600.59;108178;1253;72449;-66
2023/11/24 00:07:48;;;;;;;20.70;11.00;;;;;;;10.86;54.45;97601.34;108145;1253;61301;-66
2023/11/24 00:10:15;;;;;;;21.50;12.00;;;;;;;10.68;54.92;97602.04;108187;1253;60055;-66
2023/11/24 00:12:42;;;;;;;22.30;11.80;;;;;;;10.91;54.32;97592.48;108179;1254;72868;-67
2023/11/24 00:15:09;;;;;;;20.30;11.20;;;;;;;11.04;53.91;97592.38;108196;1253;70187;-67
2023/11/24 00:17:38;;;;;;;20.10;11.00;;;;;;;10.82;54.59;97590.07;108205;1253;72493;-67
2023/11/24 00:20:08;;;;;;;19.90;10.70;;;;;;;10.86;54.41;97583.56;108198;1254;59081;-66
2023/11/24 00:22:34;;;;;;;17.00;9.50;;;;;;;10.82;54.60;97585.50;108137;1253;60021;-66
2023/11/24 00:25:01;;;;;;;18.70;10.70;;;;;;;10.73;54.81;97581.80;108209;1253;72817;-66
2023/11/24 00:27:28;;;;;;;23.10;10.80;;;;;;;10.77;54.72;97580.27;108205;1253;70373;-66
2023/11/24 00:29:56;;;;;;;14.70;8.40;;;;;;;10.80;54.75;97571.28;108125;1254;73180;-66
2023/11/24 00:32:23;;;;;;;14.10;7.80;;;;;;;10.75;54.74;97565.50;108033;1254;61036;-67
2023/11/24 00:34:50;;;;;;;21.20;11.30;;;;;;;10.52;55.46;97561.98;108156;1254;60573;-66
2023/11/24 00:37:17;;;;;;;21.80;11.60;;;;;;;10.71;54.97;97558.96;108022;1254;73107;-66
2023/11/24 00:39:44;;;;;;;16.40;7.80;;;;;;;10.80;54.77;97556.66;108114;1254;70812;-66
2023/11/24 00:42:11;;;;;;;21.00;11.20;;;;;;;10.52;55.34;97553.25;108110;1254;72705;-67
2023/11/24 00:44:37;;;;;;;18.10;10.50;;;;;;;10.82;54.80;97553.73;108152;1254;59519;-66
2023/11/24 00:47:04;;;;;;;23.20;12.00;;;;;;;10.82;54.68;97549.67;108191;1256;60235;-67
2023/11/24 00:49:33;;;;;;;19.30;11.00;;;;;;;10.76;54.68;97548.24;108257;1254;72942;-67
2023/11/24 00:52:00;;;;;;;21.00;11.20;;;;;;;10.60;55.13;97543.86;108048;1254;68828;-66
2023/11/24 00:54:26;;;;;;;22.50;11.50;;;;;;;10.61;55.09;97535.14;108164;1253;72719;-67
2023/11/24 00:56:53;;;;;;;22.80;12.30;;;;;;;10.72;54.63;97529.90;108281;1256;61186;-66
2023/11/24 00:59:20;;;;;;;19.60;11.50;;;;;;;10.57;55.10;97534.79;108083;1252;60332;-66
2023/11/24 01:01:47;;;;;;;25.00;9.90;;;;;;;10.40;55.50;97527.34;108100;1254;73910;-67
2023/11/24 01:04:14;;;;;;;23.50;11.40;;;;;;;10.41;55.57;97527.63;108179;1253;70098;-67
2023/11/24 01:06:40;;;;;;;21.80;10.90;;;;;;;10.52;55.23;97522.89;108356;1254;72612;-67
2023/11/24 01:09:11;;;;;;;21.20;10.50;;;;;;;10.62;54.77;97519.98;108258;1256;60913;-67
2023/11/24 01:11:38;;;;;;;25.30;11.70;;;;;;;10.61;54.90;97510.27;108080;1253;60397;-68
2023/11/24 01:14:04;;;;;;;21.70;11.70;;;;;;;10.81;54.38;97506.43;108133;1252;73735;-67
2023/11/24 01:16:31;;;;;;;21.10;10.80;;;;;;;10.83;54.12;97498.64;108046;1256;70077;-66
2023/11/24 01:18:59;;;;;;;22.40;11.80;;;;;;;10.84;54.16;97488.39;108259;1253;60443;-66
2023/11/24 01:21:26;;;;;;;21.50;9.90;;;;;;;10.78;54.17;97486.80;108093;1254;60459;-67
2023/11/24 01:23:52;;;;;;;19.10;9.80;;;;;;;10.73;54.15;97484.41;108278;1253;60519;-67
2023/11/24 01:26:21;;;;;;;20.60;10.00;;;;;;;10.78;54.09;97476.82;108357;1252;74004;-67
2023/11/24 01:28:48;;;;;;;21.20;11.70;;;;;;;10.61;54.35;97471.64;108291;1254;70070;-67
2023/11/24 01:31:14;;;;;;;19.80;9.60;;;;;;;10.51;54.60;97471.41;108254;1254;70651;-66
2023/11/24 01:33:41;;;;;;;20.50;9.80;;;;;;;10.14;55.55;97456.33;108307;1252;60949;-66
2023/11/24 01:36:08;;;;;;;23.70;12.00;;;;;;;9.96;56.18;97454.27;108319;1253;60052;-68
2023/11/24 01:38:34;;;;;;;19.10;9.70;;;;;;;10.27;55.53;97448.33;108308;1254;73666;-67
2023/11/24 01:41:01;;;;;;;19.10;9.90;;;;;;;10.40;55.02;97445.08;108277;1253;70204;-68
2023/11/24 01:43:28;;;;;;;17.90;9.40;;;;;;;10.38;54.98;97436.81;108344;1253;72715;-66
2023/11/24 01:45:54;;;;;;;19.90;10.60;;;;;;;10.42;54.83;97427.58;108273;1253;60878;-67
2023/11/24 01:48:21;;;;;;;24.60;11.80;;;;;;;10.56;54.43;97427.31;108044;1251;60899;-66
2023/11/24 01:50:48;;;;;;;18.10;9.50;;;;;;;10.75;54.06;97424.95;108182;1251;72904;-66
2023/11/24 01:53:15;;;;;;;20.30;11.10;;;;;;;10.62;54.29;97422.50;108204;1251;70055;-67
2023/11/24 01:55:42;;;;;;;23.20;12.60;;;;;;;10.53;54.45;97411.55;108210;1254;71195;-66
2023/11/24 01:58:08;;;;;;;18.40;10.50;;;;;;;10.71;54.13;97409.77;108233;1253;59999;-67
2023/11/24 02:00:35;;;;;;;21.30;10.80;;;;;;;10.66;54.01;97402.98;108083;1253;60135;-67
2023/11/24 02:03:02;;;;;;;18.80;8.80;;;;;;;10.40;54.67;97400.50;108172;1252;60306;-66
2023/11/24 02:05:29;;;;;;;21.60;11.00;;;;;;;10.24;55.26;97396.52;108156;1253;70277;-66
2023/11/24 02:07:55;;;;;;;21.40;12.00;;;;;;;10.54;54.61;97391.36;108192;1253;72812;-67
2023/11/24 02:10:22;;;;;;;21.80;11.70;;;;;;;10.86;53.76;97383.13;108135;1253;61000;-67
2023/11/24 02:12:50;;;;;;;23.10;10.50;;;;;;;10.50;54.43;97382.34;108048;1253;60751;-67
2023/11/24 02:15:16;;;;;;;19.10;10.50;;;;;;;10.45;54.70;97380.82;108179;1252;73851;-67
2023/11/24 02:17:44;;;;;;;22.20;11.80;;;;;;;10.36;55.09;97375.58;108174;1253;70158;-66
2023/11/24 02:20:11;;;;;;;21.00;10.70;;;;;;;10.42;54.66;97363.11;108157;1253;71545;-66
2023/11/24 02:22:40;;;;;;;21.80;10.50;;;;;;;10.29;55.16;97359.10;108209;1253;60326;-66
2023/11/24 02:25:08;;;;;;;25.10;11.80;;;;;;;10.20;55.28;97366.10;108239;1252;60299;-66
2023/11/24 02:27:35;;;;;;;19.60;10.50;;;;;;;10.85;53.72;97370.61;108235;1253;72683;-66
2023/11/24 02:30:03;;;;;;;22.00;11.70;;;;;;;10.60;54.26;97365.77;108210;1252;70355;-66
2023/11/24 02:32:30;;;;;;;22.30;8.90;;;;;;;10.64;54.03;97359.63;108177;1256;72660;-66
2023/11/24 02:34:57;;;;;;;22.90;12.40;;;;;;;10.64;54.17;97359.42;108210;1252;61257;-66
2023/11/24 02:37:23;;;;;;;23.40;11.40;;;;;;;10.88;53.44;97358.73;108317;1253;60345;-67
2023/11/24 02:39:50;;;;;;;17.70;9.10;;;;;;;10.97;53.17;97346.21;108253;1253;73623;-66
2023/11/24 02:42:17;;;;;;;22.90;11.50;;;;;;;10.52;54.28;97346.05;108222;1255;70103;-67
2023/11/24 02:44:44;;;;;;;23.00;11.80;;;;;;;10.66;54.04;97341.25;108192;1252;72459;-66
2023/11/24 02:47:11;;;;;;;18.10;10.70;;;;;;;10.93;53.38;97339.54;108141;1252;60945;-66
2023/11/24 02:49:38;;;;;;;20.40;11.00;;;;;;;10.89;53.60;97329.02;108161;1255;60300;-66
2023/11/24 02:52:05;;;;;;;19.20;10.40;;;;;;;11.14;52.85;97320.05;108238;1252;73662;-66
2023/11/24 02:54:32;;;;;;;20.40;10.10;;;;;;;10.93;53.39;97317.77;108275;1253;69064;-65
2023/11/24 02:56:59;;;;;;;20.00;11.40;;;;;;;10.59;54.30;97315.71;108210;1252;72599;-66
2023/11/24 02:59:26;;;;;;;20.80;9.60;;;;;;;10.91;53.58;97305.87;108191;1253;60919;-66
2023/11/24 03:01:52;;;;;;;18.30;10.30;;;;;;;11.08;53.26;97300.24;108284;1251;60334;-66
2023/11/24 03:04:19;;;;;;;20.10;10.50;;;;;;;11.25;52.56;97288.89;108311;1251;73770;-66
2023/11/24 03:06:46;;;;;;;18.80;9.90;;;;;;;11.35;52.38;97270.04;108316;1251;70367;-66
2023/11/24 03:09:14;;;;;;;17.50;9.20;;;;;;;11.28;52.54;97258.46;108230;1251;72610;-66
2023/11/24 03:11:40;;;;;;;19.10;9.00;;;;;;;11.11;52.90;97263.09;108370;1251;61243;-67
2023/11/24 03:14:07;;;;;;;15.20;8.90;;;;;;;11.30;52.69;97266.04;108200;1251;60389;-67
2023/11/24 03:16:33;;;;;;;16.40;8.80;;;;;;;11.22;52.72;97274.23;108303;1251;73671;-67
2023/11/24 03:19:00;;;;;;;16.00;8.70;;;;;;;11.25;52.78;97273.27;108398;1256;70301;-67
2023/11/24 03:21:27;;;;;;;19.30;10.00;;;;;;;11.30;52.62;97263.92;108259;1256;71651;-67
2023/11/24 03:23:54;;;;;;;13.70;7.10;;;;;;;11.46;52.05;97255.52;108285;1251;60891;-67
2023/11/24 03:26:20;;;;;;;15.90;8.10;;;;;;;11.10;53.01;97249.31;108291;1251;60297;-67
2023/11/24 03:28:48;;;;;;;17.50;10.50;;;;;;;11.20;52.96;97244.36;108307;1251;73919;-66
2023/11/24 03:31:14;;;;;;;16.00;9.10;;;;;;;11.44;52.21;97226.38;108306;1251;60410;-67
2023/11/24 03:33:41;;;;;;;14.30;8.50;;;;;;;11.22;52.74;97231.81;108286;1251;71314;-65
2023/11/24 03:36:08;;;;;;;18.10;8.80;;;;;;;11.34;52.35;97235.69;108314;1251;61007;-67
2023/11/24 03:38:35;;;;;;;16.90;8.90;;;;;;;11.36;52.33;97233.15;108283;1251;60335;-67
2023/11/24 03:41:01;;;;;;;15.70;7.60;;;;;;;11.14;52.77;97219.25;108322;1251;60395;-67
2023/11/24 03:43:28;;;;;;;15.60;7.70;;;;;;;11.08;52.87;97207.98;108144;1256;70044;-67
2023/11/24 03:45:56;;;;;;;16.00;8.30;;;;;;;11.09;52.96;97190.20;108177;1251;72644;-67
2023/11/24 03:48:23;;;;;;;18.10;8.20;;;;;;;11.31;52.30;97177.92;108212;1251;61515;-67
2023/11/24 03:50:51;;;;;;;13.00;8.00;;;;;;;11.43;52.04;97197.45;108235;1256;60970;-67
2023/11/24 03:53:18;;;;;;;14.50;8.50;;;;;;;11.59;51.64;97190.42;108366;1254;73794;-67
2023/11/24 03:55:46;;;;;;;20.40;9.00;;;;;;;11.84;50.69;97174.87;108304;1251;70237;-67
2023/11/24 03:58:13;;;;;;;14.00;7.30;;;;;;;11.67;51.14;97166.88;108404;1251;71431;-68
2023/11/24 04:00:40;;;;;;;17.70;9.20;;;;;;;11.33;51.80;97167.55;108209;1253;60541;-67
2023/11/24 04:03:07;;;;;;;17.30;7.90;;;;;;;11.30;52.11;97158.73;108215;1252;60324;-66
2023/11/24 04:05:33;;;;;;;14.00;7.90;;;;;;;11.24;52.27;97137.10;108171;1252;72910;-65
2023/11/24 04:08:01;;;;;;;15.60;7.80;;;;;;;11.29;51.97;97106.70;108240;1253;70364;-67
2023/11/24 04:10:27;;;;;;;12.70;7.50;;;;;;;11.51;51.50;97113.80;108191;1253;60560;-67
2023/11/24 04:12:54;;;;;;;14.00;7.90;;;;;;;11.34;51.67;97106.94;108150;1252;59316;-66
2023/11/24 04:15:20;;;;;;;16.50;8.90;;;;;;;11.39;51.60;97090.85;108153;1256;60428;-67
2023/11/24 04:17:47;;;;;;;13.70;6.80;;;;;;;11.60;51.18;97120.82;108202;1253;73827;-67
2023/11/24 04:20:14;;;;;;;17.10;9.20;;;;;;;11.77;50.74;97146.84;108162;1252;68921;-67
2023/11/24 04:22:41;;;;;;;14.00;8.00;;;;;;;11.68;50.94;97173.50;108147;1252;71191;-67
2023/11/24 04:25:09;;;;;;;14.50;8.50;;;;;;;11.54;51.13;97189.83;108160;1253;61001;-67
2023/11/24 04:27:36;;;;;;;16.50;7.20;;;;;;;11.71;50.83;97201.91;108179;1253;60446;-67
2023/11/24 04:30:03;;;;;;;13.20;7.40;;;;;;;11.63;51.08;97223.33;108183;1253;72614;-67
2023/11/24 04:32:30;;;;;;;15.30;8.60;;;;;;;11.62;51.06;97232.38;108194;1253;70101;-67
2023/11/24 04:34:57;;;;;;;16.80;8.70;;;;;;;11.82;50.67;97226.89;108214;1252;71280;-66
2023/11/24 04:37:23;;;;;;;16.00;8.00;;;;;;;11.97;50.43;97221.94;108182;1253;60335;-67
2023/11/24 04:39:50;;;;;;;15.50;8.60;;;;;;;11.91;50.35;97218.19;108267;1253;58979;-66
2023/11/24 04:42:16;;;;;;;13.50;7.30;;;;;;;11.95;50.32;97221.61;108202;1253;60322;-67
2023/11/24 04:44:45;;;;;;;13.50;8.20;;;;;;;11.87;50.51;97232.27;108169;1256;60306;-67
2023/11/24 04:47:12;;;;;;;13.10;8.30;;;;;;;11.94;50.28;97238.73;108152;1252;72419;-66
2023/11/24 04:49:39;;;;;;;14.00;8.40;;;;;;;11.79;50.78;97235.66;108170;1252;60431;-66
2023/11/24 04:52:05;;;;;;;17.80;7.80;;;;;;;11.70;50.88;97233.08;108252;1252;60581;-66
2023/11/24 04:54:32;;;;;;;12.60;6.90;;;;;;;11.91;50.59;97231.58;108251;1256;73825;-65
2023/11/24 04:57:00;;;;;;;14.70;8.40;;;;;;;12.26;49.85;97221.59;108227;1253;70072;-68
2023/11/24 04:59:27;;;;;;;11.00;6.30;;;;;;;12.20;49.73;97205.09;108241;1253;71480;-64
2023/11/24 05:01:54;;;;;;;13.90;8.00;;;;;;;11.73;51.07;97208.21;108325;1251;60423;-67
2023/11/24 05:04:20;;;;;;;12.90;7.60;;;;;;;12.26;49.90;97207.01;108264;1251;59081;-66
2023/11/24 05:06:47;;;;;;;13.70;7.60;;;;;;;12.24;49.92;97207.92;108288;1251;72861;-67
2023/11/24 05:09:14;;;;;;;14.10;8.60;;;;;;;12.32;49.74;97199.57;108289;1251;70193;-66
2023/11/24 05:11:40;;;;;;;15.90;8.90;;;;;;;12.52;49.09;97199.35;108281;1251;72343;-67
2023/11/24 05:14:07;;;;;;;13.00;7.60;;;;;;;12.60;49.13;97201.13;108299;1251;61193;-67
2023/11/24 05:16:34;;;;;;;12.90;7.70;;;;;;;12.29;49.56;97206.02;108262;1251;60351;-67
2023/11/24 05:19:00;;;;;;;15.20;8.60;;;;;;;12.02;50.42;97203.21;108334;1255;73660;-67
2023/11/24 05:21:27;;;;;;;15.20;8.40;;;;;;;12.19;50.12;97203.27;108318;1251;70110;-66
2023/11/24 05:23:54;;;;;;;13.80;8.30;;;;;;;12.24;49.91;97208.92;108273;1251;72003;-66
2023/11/24 05:26:22;;;;;;;13.70;8.30;;;;;;;11.99;50.65;97215.61;108303;1251;61053;-67
2023/11/24 05:28:49;;;;;;;15.10;8.50;;;;;;;12.19;50.23;97203.42;108366;1251;60241;-67
2023/11/24 05:31:15;;;;;;;14.80;8.00;;;;;;;12.28;50.02;97212.26;108039;1253;72564;-68
2023/11/24 05:33:42;;;;;;;13.80;8.80;;;;;;;12.25;50.18;97205.20;108077;1253;70284;-67
2023/11/24 05:36:11;;;;;;;14.20;8.10;;;;;;;12.41;49.71;97206.17;108027;1253;72625;-67
2023/11/24 05:38:39;;;;;;;13.80;7.70;;;;;;;12.48;49.58;97201.27;108081;1253;60910;-66
2023/11/24 05:41:05;;;;;;;14.20;7.40;;;;;;;12.50;49.47;97204.48;108109;1253;60342;-70
2023/11/24 05:43:32;;;;;;;13.50;8.00;;;;;;;12.58;49.49;97206.55;108158;1253;73794;-67
2023/11/24 05:45:59;;;;;;;11.70;7.50;;;;;;;12.57;49.61;97208.44;108061;1253;70072;-67
2023/11/24 05:48:25;;;;;;;13.30;8.40;;;;;;;12.56;49.45;97200.38;108065;1253;72503;-67
2023/11/24 05:50:52;;;;;;;13.80;6.90;;;;;;;12.44;49.87;97199.59;108091;1253;61496;-67
2023/11/24 05:53:19;;;;;;;12.70;7.80;;;;;;;12.33;50.38;97204.23;108075;1253;60502;-67
2023/11/24 05:55:45;;;;;;;12.40;7.80;;;;;;;12.61;49.41;97207.81;108063;1253;72362;-67
2023/11/24 05:58:12;;;;;;;14.70;8.60;;;;;;;12.39;50.20;97213.53;108022;1253;60418;-67
2023/11/24 06:00:39;;;;;;;16.20;9.10;;;;;;;12.63;49.54;97216.27;108130;1251;72548;-67
2023/11/24 06:03:05;;;;;;;13.80;8.20;;;;;;;12.79;49.44;97229.42;108235;1251;60536;-68
2023/11/24 06:05:32;;;;;;;13.40;8.70;;;;;;;12.76;49.74;97231.46;108219;1251;60396;-67
2023/11/24 06:08:02;;;;;;;15.00;9.20;;;;;;;12.89;49.50;97232.96;108241;1251;73847;-67
2023/11/24 06:10:29;;;;;;;13.70;7.50;;;;;;;12.94;49.46;97227.19;108256;1251;70224;-68
2023/11/24 06:12:56;;;;;;;13.80;8.70;;;;;;;13.03;49.09;97225.28;108280;1251;72495;-67
2023/11/24 06:15:23;;;;;;;13.80;8.70;;;;;;;13.16;48.76;97221.08;108117;1251;60827;-67
2023/11/24 06:17:50;;;;;;;15.30;8.70;;;;;;;12.99;49.22;97212.29;108249;1251;60561;-67
2023/11/24 06:20:16;;;;;;;14.90;9.10;;;;;;;13.18;48.67;97216.67;108230;1255;73692;-67
2023/11/24 06:22:43;;;;;;;13.30;8.40;;;;;;;13.23;48.64;97213.20;108258;1251;60287;-66
2023/11/24 06:25:10;;;;;;;15.20;8.30;;;;;;;13.11;48.91;97207.83;108331;1251;72658;-68
2023/11/24 06:27:42;;;;;;;13.40;8.10;;;;;;;13.15;48.70;97198.77;108232;1251;60754;-67
2023/11/24 06:30:09;;;;;;;14.00;7.60;;;;;;;13.22;48.64;97185.09;108269;1251;60297;-68
2023/11/24 06:32:36;;;;;;;12.40;7.80;;;;;;;13.20;48.42;97186.40;108266;1255;73835;-68
2023/11/24 06:35:06;;;;;;;15.30;8.80;;;;;;;13.00;48.90;97180.86;108131;1251;68951;-67
2023/11/24 06:37:33;;;;;;;12.50;7.50;;;;;;;12.88;49.18;97177.55;108252;1251;71075;-68
2023/11/24 06:40:02;;;;;;;14.00;8.70;;;;;;;13.00;48.87;97177.49;108254;1251;60144;-67
2023/11/24 06:42:31;;;;;;;16.70;8.90;;;;;;;12.92;49.10;97194.46;108216;1251;60828;-67
2023/11/24 06:44:58;;;;;;;13.60;8.10;;;;;;;12.87;49.10;97201.44;108305;1251;73636;-67
2023/11/24 06:47:25;;;;;;;13.70;8.50;;;;;;;12.94;48.72;97201.27;108248;1251;70244;-68
2023/11/24 06:49:52;;;;;;;13.20;7.90;;;;;;;12.89;49.08;97202.66;108262;1251;72675;-66
2023/11/24 06:52:19;;;;;;;14.20;8.20;;;;;;;13.10;48.64;97217.41;108220;1251;60201;-67
2023/11/24 06:54:46;;;;;;;12.40;7.20;;;;;;;12.97;48.84;97220.23;108252;1251;60345;-67
2023/11/24 06:57:12;;;;;;;14.50;8.50;;;;;;;13.01;48.72;97222.64;108246;1256;73876;-67
2023/11/24 06:59:39;;;;;;;16.30;8.20;;;;;;;13.06;48.46;97214.13;108289;1251;71277;-67
2023/11/24 07:02:07;;;;;;;12.70;7.30;;;;;;;13.13;48.49;97222.77;108219;1253;60412;-67
2023/11/24 07:04:34;;;;;;;12.80;8.00;;;;;;;12.95;48.58;97216.20;108122;1252;60515;-67
2023/11/24 07:07:01;;;;;;;13.90;7.60;;;;;;;12.70;49.03;97219.90;108176;1255;60347;-67
2023/11/24 07:09:28;;;;;;;13.00;7.50;;;;;;;12.36;49.92;97225.64;108144;1253;73637;-67
2023/11/24 07:11:55;;;;;;;11.40;6.30;;;;;;;12.45;49.56;97234.64;108152;1253;70230;-67
2023/11/24 07:14:21;;;;;;;13.10;7.40;;;;;;;12.55;49.58;97229.17;108139;1253;72605;-67
2023/11/24 07:16:48;;;;;;;11.30;7.10;;;;;;;12.79;48.93;97231.52;108143;1252;60469;-67
2023/11/24 07:19:17;;;;;;;14.00;7.70;;;;;;;12.94;48.62;97239.84;108155;1252;60544;-67
2023/11/24 07:21:45;;;;;;;14.20;7.70;;;;;;;13.12;48.26;97233.30;108199;1252;73891;-67
2023/11/24 07:24:11;;;;;;;13.10;6.70;;;;;;;12.74;48.83;97235.48;108168;1255;70634;-67
2023/11/24 07:26:38;;;;;;;11.10;6.70;;;;;;;12.83;48.79;97229.80;108145;1253;71970;-67
2023/11/24 07:29:05;;;;;;;10.70;6.10;;;;;;;12.85;48.71;97235.91;108128;1253;61121;-68
2023/11/24 07:31:32;;;;;;;12.70;6.70;;;;;;;12.76;48.75;97227.98;108165;1253;60287;-67
2023/11/24 07:33:58;;;;;;;11.10;6.70;;;;;;;13.14;48.06;97222.92;108202;1253;74954;-67
2023/11/24 07:36:25;;;;;;;13.10;6.90;;;;;;;13.11;47.99;97219.31;108199;1253;70164;-66
2023/11/24 07:38:52;;;;;;;10.10;5.70;;;;;;;13.33;47.52;97220.45;108174;1253;72439;-67
2023/11/24 07:41:19;;;;;;;9.70;6.60;;;;;;;13.31;47.50;97224.31;108065;1256;61155;-67
2023/11/24 07:43:45;;;;;;;9.60;5.50;;;;;;;13.47;47.04;97222.46;108135;1252;60417;-67
2023/11/24 07:46:12;;;;;;;7.20;4.80;;;;;;;13.24;47.33;97225.12;108169;1253;73704;-67
2023/11/24 07:48:40;;;;;;;9.60;4.90;;;;;;;13.45;46.76;97221.16;108175;1252;70297;-67
2023/11/24 07:51:07;;;;;;;11.10;5.60;;;;;;;13.41;46.67;97223.68;108150;1255;72691;-67
2023/11/24 07:53:34;;;;;;;9.10;5.60;;;;;;;13.38;46.80;97221.02;108187;1253;61414;-67
2023/11/24 07:56:00;;;;;;;9.40;5.70;;;;;;;13.58;46.32;97225.21;108187;1253;60049;-68
2023/11/24 07:58:30;;;;;;;8.50;5.30;;;;;;;13.71;46.00;97221.63;108145;1253;73680;-67
2023/11/24 08:00:57;;;;;;;8.10;5.50;;;;;;;13.45;46.46;97220.69;108299;1253;70797;-68
2023/11/24 08:03:24;;;;;;;7.90;5.40;;;;;;;13.53;46.05;97223.63;108282;1251;71273;-68
2023/11/24 08:05:52;;;;;;;8.10;4.90;;;;;;;13.21;46.64;97230.17;108221;1251;61146;-68
2023/11/24 08:08:18;;;;;;;9.10;5.00;;;;;;;13.18;46.58;97227.08;108297;1251;60190;-68
2023/11/24 08:10:45;;;;;;;10.10;5.10;;;;;;;13.04;47.04;97236.52;108219;1251;73837;-68
2023/11/24 08:13:12;;;;;;;9.50;5.00;;;;;;;13.16;46.91;97240.27;108330;1251;70347;-67
2023/11/24 08:15:39;;;;;;;14.00;8.30;;;;;;;13.48;46.52;97238.68;108292;1251;72551;-67
2023/11/24 08:18:05;;;;;;;10.00;5.20;;;;;;;13.64;46.24;97246.38;108278;1251;60405;-67
2023/11/24 08:20:32;;;;;;;8.70;5.30;;;;;;;14.06;45.34;97247.46;108234;1251;60479;-67
2023/11/24 08:22:58;;;;;;;9.80;5.30;;;;;;;14.48;44.02;97253.44;108278;1251;59556;-68
2023/11/24 08:25:25;;;;;;;8.20;4.60;;;;;;;14.50;43.70;97252.66;108293;1251;69244;-68
2023/11/24 08:27:52;;;;;;;7.30;3.50;;;;;;;14.52;43.36;97256.43;108276;1251;72406;-68
2023/11/24 08:30:19;;;;;;;7.70;4.70;;;;;;;14.51;43.39;97255.98;108234;1251;60163;-67
2023/11/24 08:32:48;;;;;;;8.00;4.70;;;;;;;14.33;43.42;97254.38;108258;1251;60433;-67
2023/11/24 08:35:15;;;;;;;9.40;4.90;;;;;;;14.56;43.42;97248.58;108261;1251;73639;-67
2023/11/24 08:37:41;;;;;;;8.20;4.80;;;;;;;14.89;43.15;97246.67;108303;1251;70411;-67
2023/11/24 08:40:14;;;;;;;8.30;4.30;;;;;;;15.29;42.08;97252.25;108258;1251;73036;-68
2023/11/24 08:42:42;;;;;;;6.90;4.10;;;;;;;15.36;41.72;97249.20;108229;1251;61201;-66
2023/11/24 08:45:10;;;;;;;8.10;4.00;;;;;;;15.31;41.65;97249.87;108240;1251;60223;-67
2023/11/24 08:47:37;;;;;;;7.20;2.90;;;;;;;15.07;41.86;97248.23;108199;1251;72917;-67
2023/11/24 08:50:05;;;;;;;6.60;4.00;;;;;;;14.69;42.47;97249.38;108248;1251;70113;-67
2023/11/24 08:52:35;;;;;;;;;;;;;;;14.86;42.25;97240.83;108251;1251;72710;-67
2023/11/24 08:55:03;;;;;;;5.70;3.30;;;;;;;14.76;42.29;97238.11;108241;1251;60889;-67
2023/11/24 08:57:30;;;;;;;8.70;3.50;;;;;;;14.84;42.38;97236.23;108239;1251;61348;-67
2023/11/24 08:59:57;;;;;;;5.10;3.60;;;;;;;15.10;41.71;97235.16;108299;1251;73891;-67
2023/11/24 09:05:36;;;;;;;7.40;4.10;;;;;;;12.98;46.39;97240.45;104707;1292;603753;-67
2023/11/24 09:08:03;;;;;;;8.00;4.20;;;;;;;14.23;43.40;97231.17;107265;1266;58851;-67
2023/11/24 09:10:30;;;;;;;6.20;3.30;;;;;;;14.22;43.18;97226.61;107273;1264;60287;-67
2023/11/24 09:12:57;;;;;;;6.90;3.90;;;;;;;14.19;43.29;97228.49;107297;1264;72375;-68
2023/11/24 09:15:24;;;;;;;6.10;3.70;;;;;;;14.11;43.33;97231.10;107797;1256;70141;-67
2023/11/24 09:17:50;;;;;;;7.60;4.30;;;;;;;14.40;42.95;97231.08;107644;1254;148569;-68
2023/11/24 09:20:18;;;;;;;7.00;4.00;;;;;;;14.30;42.94;97230.09;108036;1254;60915;-67
2023/11/24 09:22:45;;;;;;;11.10;4.20;;;;;;;14.38;42.60;97224.75;108062;1254;60370;-67
2023/11/24 09:25:14;;;;;;;6.80;4.20;;;;;;;14.31;42.84;97233.85;108004;1254;70990;-67
2023/11/24 09:27:41;;;;;;;6.10;3.50;;;;;;;14.06;43.06;97229.29;107969;1254;69430;-67
2023/11/24 09:30:10;;;;;;;6.00;3.60;;;;;;;13.87;43.32;97222.48;107998;1254;71681;-67
2023/11/24 09:32:39;;;;;;;7.10;4.00;;;;;;;13.93;43.25;97220.16;107894;1254;61156;-68
2023/11/24 09:35:07;;;;;;;6.80;4.00;;;;;;;14.27;42.68;97214.85;107997;1254;60718;-67
2023/11/24 09:37:34;;;;;;;6.30;3.90;;;;;;;14.29;42.75;97216.81;108005;1254;71496;-67
2023/11/24 09:40:03;;;;;;;9.60;4.40;;;;;;;14.11;42.99;97213.58;107855;1257;70431;-66
2023/11/24 09:42:32;;;;;;;8.60;4.50;;;;;;;14.07;43.26;97210.35;108013;1254;72477;-67
2023/11/24 09:45:00;;;;;;;8.40;4.30;;;;;;;14.10;43.18;97206.09;107886;1254;60982;-67
2023/11/24 09:47:27;;;;;;;6.40;4.10;;;;;;;14.24;42.71;97203.77;108003;1256;60101;-67
2023/11/24 09:49:54;;;;;;;8.20;4.00;;;;;;;14.12;43.01;97198.36;108194;1251;71966;-68
2023/11/24 09:52:22;;;;;;;9.10;4.60;;;;;;;14.50;42.44;97194.25;108156;1253;71694;-67
2023/11/24 09:54:53;;;;;;;5.90;3.80;;;;;;;15.05;41.58;97198.26;108218;1252;72878;-67
2023/11/24 09:57:22;;;;;;;6.60;3.90;;;;;;;15.44;40.57;97197.40;108090;1253;59763;-67
2023/11/24 09:59:48;;;;;;;5.20;3.50;;;;;;;15.69;39.73;97186.77;108219;1252;60343;-67
2023/11/24 10:02:17;;;;;;;7.80;4.50;;;;;;;15.53;40.01;97207.32;108165;1253;72076;-67
2023/11/24 10:04:44;;;;;;;7.70;4.30;;;;;;;15.63;39.68;97207.37;108107;1253;70207;-67
2023/11/24 10:07:23;;;;;;;7.10;3.70;;;;;;;15.78;39.22;97216.98;108180;1253;71290;-67
2023/11/24 10:09:50;;;;;;;7.20;3.60;;;;;;;15.35;39.86;97225.79;108048;1253;61877;-67
2023/11/24 10:12:17;;;;;;;8.20;3.60;;;;;;;15.20;39.85;97234.34;108091;1252;60119;-67
2023/11/24 10:14:44;;;;;;;7.60;3.70;;;;;;;15.09;40.08;97235.48;108107;1253;71733;-66
2023/11/24 10:17:11;;;;;;;7.80;3.50;;;;;;;15.35;39.58;97235.17;108113;1253;70330;-67
2023/11/24 10:19:38;;;;;;;6.80;3.50;;;;;;;15.49;39.05;97237.25;108105;1253;71426;-68
2023/11/24 10:22:05;;;;;;;9.20;3.60;;;;;;;15.89;38.65;97235.29;108068;1253;61075;-67
2023/11/24 10:24:32;;;;;;;8.50;4.40;;;;;;;16.48;37.84;97230.98;108177;1253;60332;-67
2023/11/24 10:27:27;;;;;;;10.60;4.40;;;;;;;16.91;36.82;97221.22;108115;1253;72993;-67
2023/11/24 10:29:54;;;;;;;10.10;3.90;;;;;;;16.78;36.73;97232.17;108116;1253;70294;-70
2023/11/24 10:32:21;;;;;;;8.00;3.40;;;;;;;16.94;36.56;97229.91;108085;1253;59616;-67
2023/11/24 10:34:48;;;;;;;7.00;3.60;;;;;;;17.16;36.40;97227.48;108119;1253;60409;-67
2023/11/24 10:37:20;;;;;;;10.10;4.30;;;;;;;17.64;36.02;97225.50;108046;1253;60295;-67
2023/11/24 10:39:48;;;;;;;11.80;4.50;;;;;;;18.21;35.65;97220.02;108091;1253;71832;-67
2023/11/24 10:42:19;;;;;;;7.40;3.90;;;;;;;18.17;35.03;97211.23;108071;1253;70481;-68
2023/11/24 10:44:54;;;;;;;7.50;3.20;;;;;;;18.34;34.17;97215.45;108054;1253;72514;-68
2023/11/24 10:47:26;;;;;;;7.10;3.70;;;;;;;18.51;33.82;97217.95;108074;1253;60221;-67
2023/11/24 10:50:09;;;;;;;5.80;3.10;;;;;;;18.59;33.35;97220.55;108130;1253;60008;-67
2023/11/24 10:52:43;;;;;;;7.10;2.50;;;;;;;18.49;32.57;97227.95;108083;1253;72826;-68
2023/11/24 10:55:10;;;;;;;4.70;2.50;;;;;;;18.55;32.25;97235.26;108057;1253;70184;-68
2023/11/24 10:57:37;;;;;;;5.40;2.70;;;;;;;18.53;32.20;97226.90;108016;1253;71544;-68
2023/11/24 11:00:04;;;;;;;7.30;3.30;;;;;;;18.69;32.21;97235.98;108055;1253;59708;-68
2023/11/24 11:02:35;;;;;;;5.80;2.90;;;;;;;18.43;32.09;97234.51;108126;1253;61065;-68
2023/11/24 11:05:36;;;;;;;3.90;2.50;;;;;;;18.35;31.61;97242.01;108105;1253;72905;-68
2023/11/24 11:08:17;;;;;;;5.00;2.20;;;;;;;18.53;30.84;97244.15;108130;1253;70277;-68
2023/11/24 11:11:15;;;;;;;4.60;1.70;;;;;;;18.82;29.98;97238.97;108003;1253;72059;-68
2023/11/24 11:13:50;;;;;;;5.10;2.30;;;;;;;19.26;29.76;97235.11;108102;1253;60400;-68
2023/11/24 11:16:16;;;;;;;8.60;2.60;;;;;;;19.98;29.33;97236.11;108096;1253;60044;-68
2023/11/24 11:18:43;;;;;;;3.80;2.10;;;;;;;20.37;28.45;97228.00;107876;1260;70676;-68
2023/11/24 11:21:17;;;;;;;5.20;2.80;;;;;;;20.46;27.96;97225.63;107994;1253;59602;-68